Time;durP1;ratioP1;P1;durP2;ratioP2;P2;SDS_P1;SDS_P2;PMS_P1;PMS_P2;Temp;Humidity;BMP_temperature;BMP_pressure;BME280_temperature;BME280_humidity;BME280_pressure;Samples;Min_cycle;Max_cycle;Signal;HPM_P1;HPM_P2
2023/05/02 00:00:14;;;;;;;;;;;;;;;16.60;46.96;101441.47;5020361;28;1036;-57
2023/05/02 00:02:40;;;;;;;;;;;;;;;17.30;47.17;101449.06;5033256;28;1131;-57
2023/05/02 00:05:06;;;;;;;;;;;;;;;16.79;47.71;101452.13;5019352;28;886;-57
2023/05/02 00:07:31;;;;;;;;;;;;;;;16.56;46.85;101447.75;5034006;28;1970;-56
2023/05/02 00:09:57;;;;;;;;;;;;;;;17.27;47.11;101452.34;5039096;28;1062;-57
2023/05/02 00:12:23;;;;;;;;;;;;;;;16.99;47.58;101451.53;5038868;28;1031;-58
2023/05/02 00:14:48;;;;;;;;;;;;;;;16.59;47.30;101449.97;5030219;28;1469;-56
2023/05/02 00:17:20;;;;;;;;;;;;;;;16.47;46.61;101457.53;5020023;28;1044;-56
2023/05/02 00:19:46;;;;;;;;;;;;;;;17.43;46.65;101464.28;5031979;28;1056;-57
2023/05/02 00:22:11;;;;;;;;;;;;;;;16.75;47.38;101460.03;5038567;28;1400;-56
2023/05/02 00:24:37;;;;;;;;;;;;;;;16.46;47.14;101464.09;5038777;28;1039;-57
2023/05/02 00:27:03;;;;;;;;;;;;;;;16.38;46.60;101463.47;5026024;28;1987;-56
2023/05/02 00:29:29;;;;;;;;;;;;;;;17.31;46.33;101458.97;5038651;28;1028;-57
2023/05/02 00:31:54;;;;;;;;;;;;;;;16.63;47.28;101461.28;5024451;28;1523;-57
2023/05/02 00:34:20;;;;;;;;;;;;;;;16.42;46.64;101470.13;5038014;28;1055;-57
2023/05/02 00:36:46;;;;;;;;;;;;;;;17.34;46.22;101463.13;5036994;28;1450;-57
2023/05/02 00:39:12;;;;;;;;;;;;;;;16.62;47.11;101465.94;5037659;28;1040;-58
2023/05/02 00:41:38;;;;;;;;;;;;;;;16.99;47.14;101468.00;5032041;28;1019;-57
2023/05/02 00:44:03;;;;;;;;;;;;;;;17.33;46.88;101469.69;5030395;28;1120;-57
2023/05/02 00:46:29;;;;;;;;;;;;;;;16.69;47.24;101472.06;5038201;28;1084;-56
2023/05/02 00:48:54;;;;;;;;;;;;;;;17.77;46.62;101470.31;5037104;28;1913;-57
2023/05/02 00:51:20;;;;;;;;;;;;;;;17.00;47.34;101468.81;5025221;28;1195;-56
2023/05/02 00:53:45;;;;;;;;;;;;;;;16.63;47.03;101462.09;5038018;28;1054;-57
2023/05/02 00:56:11;;;;;;;;;;;;;;;16.87;47.10;101462.66;5025411;28;1190;-56
2023/05/02 00:58:37;;;;;;;;;;;;;;;16.90;47.62;101458.56;5026499;28;1182;-57
2023/05/02 01:01:38;;;;;;;;;;;;;;;16.90;47.55;101462.16;5024305;28;1127;-56
2023/05/02 01:04:39;;;;;;;;;;;;;;;17.83;46.79;101468.41;5015948;28;1063;-55
2023/05/02 01:07:34;;;;;;;;;;;;;;;16.99;47.35;101459.78;4996908;28;1918;-55
2023/05/02 01:10:05;;;;;;;;;;;;;;;16.80;46.74;101466.69;5016323;28;1136;-56
2023/05/02 01:12:37;;;;;;;;;;;;;;;16.63;46.66;101464.84;5036884;28;1158;-55
2023/05/02 01:15:04;;;;;;;;;;;;;;;17.15;47.57;101462.66;5038235;28;1046;-56
2023/05/02 01:17:31;;;;;;;;;;;;;;;16.74;47.34;101460.31;5025052;28;1214;-57
2023/05/02 01:19:57;;;;;;;;;;;;;;;16.55;46.62;101460.66;5024929;28;1151;-58
2023/05/02 01:22:23;;;;;;;;;;;;;;;16.43;46.23;101462.69;5037398;28;1139;-58
2023/05/02 01:25:27;;;;;;;;;;;;;;;16.31;45.74;101460.06;5036936;28;1099;-57
2023/05/02 01:27:57;;;;;;;;;;;;;;;17.12;46.98;101457.69;4982254;28;1919;-57
2023/05/02 01:30:23;;;;;;;;;;;;;;;16.62;47.07;101452.22;4998798;28;1099;-58
2023/05/02 01:32:49;;;;;;;;;;;;;;;16.45;46.20;101448.72;5026342;28;1079;-57
2023/05/02 01:35:15;;;;;;;;;;;;;;;16.31;46.09;101454.56;5036137;28;1048;-57
2023/05/02 01:37:40;;;;;;;;;;;;;;;17.40;46.24;101451.91;5034560;28;1122;-58
2023/05/02 01:40:06;;;;;;;;;;;;;;;16.60;47.29;101457.94;5031734;28;1531;-58
2023/05/02 01:42:32;;;;;;;;;;;;;;;16.44;46.50;101464.38;5027896;28;881;-57
2023/05/02 01:44:57;;;;;;;;;;;;;;;17.70;46.23;101446.91;5032360;28;1086;-58
2023/05/02 01:47:23;;;;;;;;;;;;;;;16.86;47.40;101454.69;5028390;28;1989;-58
2023/05/02 01:49:48;;;;;;;;;;;;;;;16.56;47.00;101458.72;5023513;28;1100;-58
2023/05/02 01:52:14;;;;;;;;;;;;;;;17.33;46.77;101456.78;5025854;28;1122;-58
2023/05/02 01:54:40;;;;;;;;;;;;;;;16.69;47.38;101452.84;5035222;28;1039;-58
2023/05/02 01:57:06;;;;;;;;;;;;;;;16.52;46.68;101450.19;5008425;28;1484;-58
2023/05/02 01:59:32;;;;;;;;;;;;;;;16.87;46.88;101453.56;5033519;28;1104;-58
2023/05/02 02:01:58;;;;;;;;;;;;;;;16.79;46.93;101454.03;5036515;28;1083;-58
2023/05/02 02:04:24;;;;;;;;;;;;;;;16.76;47.34;101456.22;5036636;28;941;-58
2023/05/02 02:06:51;;;;;;;;;;;;;;;18.02;45.87;101449.59;5035681;28;852;-58
2023/05/02 02:09:16;;;;;;;;;;;;;;;17.05;47.40;101455.16;5035676;28;1910;-57
2023/05/02 02:11:50;;;;;;;;;;;;;;;16.63;47.13;101451.13;5035716;28;1039;-58
2023/05/02 02:14:24;;;;;;;;;;;;;;;16.47;46.49;101449.31;5022656;28;1222;-58
2023/05/02 02:16:50;;;;;;;;;;;;;;;17.29;47.07;101450.13;5024895;28;1067;-58
2023/05/02 02:19:15;;;;;;;;;;;;;;;16.69;47.04;101452.84;5022748;28;1004;-58
2023/05/02 02:21:41;;;;;;;;;;;;;;;16.43;46.87;101468.19;5036126;28;1512;-58
2023/05/02 02:24:07;;;;;;;;;;;;;;;16.36;46.14;101462.88;5036087;28;1048;-58
2023/05/02 02:26:32;;;;;;;;;;;;;;;17.35;46.61;101471.09;5006428;28;1203;-58
2023/05/02 02:28:59;;;;;;;;;;;;;;;16.82;47.13;101475.50;5034597;28;1965;-58
2023/05/02 02:31:29;;;;;;;;;;;;;;;16.60;47.46;101468.94;5034892;28;835;-58
2023/05/02 02:33:54;;;;;;;;;;;;;;;17.47;46.98;101468.16;5035159;28;1265;-58
2023/05/02 02:36:33;;;;;;;;;;;;;;;16.82;47.09;101462.59;5033370;28;1008;-58
2023/05/02 02:39:01;;;;;;;;;;;;;;;17.44;46.96;101466.75;5013653;28;1159;-59
2023/05/02 02:41:29;;;;;;;;;;;;;;;16.97;47.44;101466.59;5034037;28;1102;-58
2023/05/02 02:44:13;;;;;;;;;;;;;;;16.66;47.14;101469.84;5024455;28;1117;-58
2023/05/02 02:46:45;;;;;;;;;;;;;;;16.39;46.51;101472.53;5023105;28;1099;-58
2023/05/02 02:49:29;;;;;;;;;;;;;;;16.40;45.83;101466.78;5036609;28;1906;-57
2023/05/02 02:52:14;;;;;;;;;;;;;;;17.40;46.33;101471.16;5036331;28;1114;-60
2023/05/02 02:54:46;;;;;;;;;;;;;;;16.77;47.49;101474.38;5032412;28;1046;-58
2023/05/02 02:57:14;;;;;;;;;;;;;;;16.53;46.58;101479.28;5025894;28;1159;-58
2023/05/02 02:59:43;;;;;;;;;;;;;;;17.12;47.04;101472.25;5023400;28;1111;-56
2023/05/02 03:02:11;;;;;;;;;;;;;;;16.84;47.22;101478.81;5023249;28;1158;-57
2023/05/02 03:04:37;;;;;;;;;;;;;;;16.55;46.66;101485.34;5033948;28;1052;-56
2023/05/02 03:07:03;;;;;;;;;;;;;;;16.38;46.33;101485.44;5035976;28;923;-56
2023/05/02 03:09:45;;;;;;;;;;;;;;;16.99;46.43;101486.44;5022783;28;1976;-55
2023/05/02 03:12:15;;;;;;;;;;;;;;;16.66;46.77;101479.97;5033210;28;1131;-55
2023/05/02 03:14:42;;;;;;;;;;;;;;;16.70;46.85;101494.84;5024372;28;1354;-56
2023/05/02 03:17:07;;;;;;;;;;;;;;;17.28;46.50;101493.28;5035547;28;1011;-58
2023/05/02 03:19:34;;;;;;;;;;;;;;;16.68;46.91;101488.81;5034454;28;1423;-61
2023/05/02 03:22:00;;;;;;;;;;;;;;;17.69;46.17;101487.31;5034677;28;1129;-62
2023/05/02 03:24:28;;;;;;;;;;;;;;;16.86;47.51;101496.69;5026196;28;1361;-61
2023/05/02 03:26:55;;;;;;;;;;;;;;;16.52;46.94;101496.88;5027491;28;1063;-62
2023/05/02 03:29:25;;;;;;;;;;;;;;;16.48;46.34;101503.94;5014518;28;1918;-62
2023/05/02 03:31:51;;;;;;;;;;;;;;;16.57;46.42;101507.06;5020449;28;1109;-58
2023/05/02 03:34:20;;;;;;;;;;;;;;;17.21;46.83;101505.59;5034664;28;2088;-60
2023/05/02 03:36:46;;;;;;;;;;;;;;;16.57;47.13;101513.38;5025703;28;1107;-60
2023/05/02 03:39:12;;;;;;;;;;;;;;;16.43;46.71;101509.34;5033653;28;1115;-59
2023/05/02 03:41:38;;;;;;;;;;;;;;;17.53;46.35;101524.03;5021443;28;1234;-61
2023/05/02 03:44:07;;;;;;;;;;;;;;;16.69;47.51;101524.25;5016292;28;1868;-57
2023/05/02 03:46:32;;;;;;;;;;;;;;;16.54;46.72;101524.06;5014710;28;1235;-56
2023/05/02 03:48:59;;;;;;;;;;;;;;;16.31;46.58;101520.44;5014706;28;1977;-56
2023/05/02 03:51:25;;;;;;;;;;;;;;;16.31;45.77;101527.84;5029305;28;1110;-54
2023/05/02 03:53:53;;;;;;;;;;;;;;;17.88;45.75;101525.41;5022347;28;1248;-55
2023/05/02 03:56:19;;;;;;;;;;;;;;;16.93;47.16;101530.31;5014643;28;1473;-55
2023/05/02 03:58:50;;;;;;;;;;;;;;;16.63;46.86;101535.41;5011306;28;1687;-52
2023/05/02 04:01:21;;;;;;;;;;;;;;;16.47;46.28;101540.72;5014124;28;1343;-55
2023/05/02 04:03:49;;;;;;;;;;;;;;;16.74;46.63;101549.00;5012555;28;1762;-57
2023/05/02 04:06:16;;;;;;;;;;;;;;;16.79;47.08;101537.28;5018668;28;1296;-51
2023/05/02 04:08:46;;;;;;;;;;;;;;;17.08;47.17;101546.16;5011948;28;1910;-42
2023/05/02 04:11:12;;;;;;;;;;;;;;;18.17;45.97;101544.34;5034523;28;1134;-41
2023/05/02 04:13:38;;;;;;;;;;;;;;;17.06;47.51;101545.56;5019813;28;1107;-44
2023/05/02 04:16:03;;;;;;;;;;;;;;;16.66;47.01;101549.47;5019714;28;1183;-44
2023/05/02 04:18:32;;;;;;;;;;;;;;;17.52;46.99;101549.88;5023512;28;1294;-44
2023/05/02 04:20:59;;;;;;;;;;;;;;;16.71;47.78;101549.53;5019297;28;1230;-46
2023/05/02 04:23:25;;;;;;;;;;;;;;;16.61;47.01;101552.16;5013356;28;1373;-46
2023/05/02 04:25:55;;;;;;;;;;;;;;;17.82;46.40;101548.47;5006238;28;1447;-41
2023/05/02 04:28:28;;;;;;;;;;;;;;;16.71;47.87;101552.25;5017903;28;1906;-46
2023/05/02 04:30:53;;;;;;;;;;;;;;;16.49;47.10;101554.19;5007453;28;1119;-41
2023/05/02 04:33:21;;;;;;;;;;;;;;;17.67;46.78;101541.75;5017958;28;1195;-48
2023/05/02 04:35:47;;;;;;;;;;;;;;;16.77;47.57;101551.25;5018113;28;1115;-43
2023/05/02 04:38:15;;;;;;;;;;;;;;;16.63;47.04;101547.22;5034793;28;1182;-42
2023/05/02 04:40:42;;;;;;;;;;;;;;;16.43;46.62;101543.13;5017509;28;1262;-43
2023/05/02 04:43:08;;;;;;;;;;;;;;;17.56;47.00;101540.84;5005045;28;1233;-45
2023/05/02 04:45:39;;;;;;;;;;;;;;;16.80;47.44;101549.91;5017846;28;2449;-44
2023/05/02 04:48:10;;;;;;;;;;;;;;;16.88;47.33;101554.13;5018133;28;1898;-42
2023/05/02 04:50:36;;;;;;;;;;;;;;;16.94;47.64;101555.84;5017725;28;1202;-43
2023/05/02 04:53:02;;;;;;;;;;;;;;;16.57;47.18;101543.56;5018313;28;1086;-44
2023/05/02 04:55:27;;;;;;;;;;;;;;;16.36;46.74;101553.47;5028075;28;1846;-43
2023/05/02 04:57:53;;;;;;;;;;;;;;;16.47;46.71;101557.19;5024269;28;1261;-42
2023/05/02 05:00:19;;;;;;;;;;;;;;;17.34;46.86;101560.16;5024108;28;1217;-44
2023/05/02 05:02:44;;;;;;;;;;;;;;;16.66;47.33;101560.47;5018967;28;1231;-45
2023/05/02 05:05:12;;;;;;;;;;;;;;;17.66;46.10;101562.09;5017660;28;1095;-45
2023/05/02 05:07:37;;;;;;;;;;;;;;;17.12;47.28;101567.63;5021588;28;1963;-40
2023/05/02 05:10:03;;;;;;;;;;;;;;;16.79;48.16;101569.38;5018411;28;1007;-45
2023/05/02 05:12:37;;;;;;;;;;;;;;;16.59;48.78;101566.13;5017180;28;1789;-45
2023/05/02 05:15:03;;;;;;;;;;;;;;;16.45;49.06;101561.25;5017056;28;1088;-41
2023/05/02 05:17:29;;;;;;;;;;;;;;;16.35;49.52;101561.94;5017409;28;1288;-42
2023/05/02 05:19:55;;;;;;;;;;;;;;;16.24;49.52;101564.56;5029845;28;1040;-46
2023/05/02 05:22:21;;;;;;;;;;;;;;;16.10;49.91;101567.88;5014045;28;1215;-41
2023/05/02 05:24:50;;;;;;;;;;;;;;;16.20;50.06;101576.25;5016923;28;997;-45
2023/05/02 05:27:16;;;;;;;;;;;;;;;17.30;47.20;101570.00;5018345;28;1906;-44
2023/05/02 05:29:41;;;;;;;;;;;;;;;16.57;49.09;101567.47;5018217;28;1032;-43
2023/05/02 05:32:07;;;;;;;;;;;;;;;16.33;49.80;101575.09;5016601;28;2138;-44
2023/05/02 05:34:33;;;;;;;;;;;;;;;16.15;49.97;101579.78;5006203;28;1204;-45
2023/05/02 05:37:00;;;;;;;;;;;;;;;17.45;47.08;101572.09;5024603;28;1897;-44
2023/05/02 05:39:25;;;;;;;;;;;;;;;16.82;48.46;101579.88;5024567;28;1494;-44
2023/05/02 05:41:54;;;;;;;;;;;;;;;16.39;49.51;101576.81;5009251;28;1230;-46
2023/05/02 05:44:24;;;;;;;;;;;;;;;16.24;50.05;101577.44;5010454;28;2043;-47
2023/05/02 05:46:49;;;;;;;;;;;;;;;17.10;48.21;101587.94;5007751;28;1282;-42
2023/05/02 05:49:17;;;;;;;;;;;;;;;16.93;48.19;101585.25;5025660;28;1909;-44
2023/05/02 05:51:43;;;;;;;;;;;;;;;16.45;49.47;101591.47;5014565;28;1285;-40
2023/05/02 05:54:09;;;;;;;;;;;;;;;16.30;50.12;101592.91;5008635;28;1140;-42
2023/05/02 05:56:35;;;;;;;;;;;;;;;16.50;49.63;101583.31;5059015;28;1235;-42
2023/05/02 05:59:07;;;;;;;;;;;;;;;17.39;47.38;101586.84;5016545;28;1271;-46
2023/05/02 06:01:34;;;;;;;;;;;;;;;16.72;49.21;101592.38;5016036;28;997;-45
2023/05/02 06:04:04;;;;;;;;;;;;;;;16.40;49.88;101587.56;5016392;28;1368;-44
2023/05/02 06:06:30;;;;;;;;;;;;;;;16.18;50.54;101587.50;5017800;28;1137;-48
2023/05/02 06:08:56;;;;;;;;;;;;;;;16.77;49.32;101595.22;5013706;28;1914;-41
2023/05/02 06:11:23;;;;;;;;;;;;;;;17.22;47.97;101597.94;4997889;28;1227;-45
2023/05/02 06:13:50;;;;;;;;;;;;;;;16.61;49.68;101582.34;5033168;28;1268;-46
2023/05/02 06:16:17;;;;;;;;;;;;;;;16.39;50.01;101599.59;5011084;28;1458;-54
2023/05/02 06:18:44;;;;;;;;;;;;;;;16.24;50.31;101589.25;5016132;28;1377;-55
2023/05/02 06:21:09;;;;;;;;;;;;;;;16.08;51.05;101592.84;5027029;28;960;-57
2023/05/02 06:23:35;;;;;;;;;;;;;;;16.91;49.16;101584.69;5016024;28;1123;-55
2023/05/02 06:26:01;;;;;;;;;;;;;;;17.21;48.20;101593.56;5016138;28;1637;-58
2023/05/02 06:28:26;;;;;;;;;;;;;;;16.61;49.56;101596.09;5017276;28;1985;-57
2023/05/02 06:31:02;;;;;;;;;;;;;;;16.38;50.24;101599.88;5016019;28;1413;-56
2023/05/02 06:33:27;;;;;;;;;;;;;;;16.18;50.91;101598.47;5014963;28;1194;-55
2023/05/02 06:35:53;;;;;;;;;;;;;;;16.06;51.01;101595.84;5009713;28;1274;-56
2023/05/02 06:38:19;;;;;;;;;;;;;;;17.48;47.61;101595.47;5008741;28;1119;-56
2023/05/02 06:40:44;;;;;;;;;;;;;;;16.91;48.79;101600.34;5014658;28;1214;-49
2023/05/02 06:43:10;;;;;;;;;;;;;;;16.50;50.14;101602.53;5008374;28;1386;-47
2023/05/02 06:45:36;;;;;;;;;;;;;;;16.21;50.70;101608.13;5013728;28;1017;-47
2023/05/02 06:48:01;;;;;;;;;;;;;;;16.99;49.01;101610.88;5016163;28;1977;-50
2023/05/02 06:50:27;;;;;;;;;;;;;;;17.12;48.52;101609.66;5016645;28;1111;-49
2023/05/02 06:52:53;;;;;;;;;;;;;;;16.56;49.82;101601.50;5012051;28;1263;-47
2023/05/02 06:55:18;;;;;;;;;;;;;;;16.36;50.62;101613.84;5018500;28;1116;-50
2023/05/02 06:57:44;;;;;;;;;;;;;;;16.28;50.68;101614.25;5019488;28;1260;-47
2023/05/02 07:00:10;;;;;;;;;;;;;;;16.69;49.91;101620.38;5009496;28;995;-46
2023/05/02 07:02:35;;;;;;;;;;;;;;;17.33;48.08;101618.97;5012461;28;917;-49
2023/05/02 07:05:00;;;;;;;;;;;;;;;16.63;49.75;101621.34;5015492;28;1071;-46
2023/05/02 07:07:26;;;;;;;;;;;;;;;16.34;50.43;101621.50;5018325;28;1965;-50
2023/05/02 07:09:51;;;;;;;;;;;;;;;16.18;51.05;101614.94;5025704;28;987;-50
2023/05/02 07:12:17;;;;;;;;;;;;;;;16.06;51.25;101619.66;5016614;28;1056;-49
2023/05/02 07:14:43;;;;;;;;;;;;;;;17.54;47.54;101613.69;5016586;28;1155;-51
2023/05/02 07:17:08;;;;;;;;;;;;;;;16.75;49.37;101624.81;5016883;28;1289;-48
2023/05/02 07:19:34;;;;;;;;;;;;;;;16.43;50.51;101622.72;5018048;28;1056;-50
2023/05/02 07:21:59;;;;;;;;;;;;;;;16.24;50.92;101618.59;5018359;28;1126;-47
2023/05/02 07:24:25;;;;;;;;;;;;;;;16.15;51.17;101614.63;5005300;28;1331;-49
2023/05/02 07:26:50;;;;;;;;;;;;;;;17.50;47.69;101613.38;5005436;28;1258;-50
2023/05/02 07:29:16;;;;;;;;;;;;;;;16.72;49.71;101624.53;5005010;28;1918;-51
2023/05/02 07:31:41;;;;;;;;;;;;;;;16.36;50.63;101629.50;5015632;28;1576;-51
2023/05/02 07:34:07;;;;;;;;;;;;;;;16.16;50.94;101629.97;5024035;28;1032;-53
2023/05/02 07:36:32;;;;;;;;;;;;;;;17.34;48.32;101637.13;5020870;28;1068;-50
2023/05/02 07:38:58;;;;;;;;;;;;;;;16.96;48.99;101641.63;5024431;28;1039;-51
2023/05/02 07:41:23;;;;;;;;;;;;;;;16.47;50.35;101638.72;5015785;28;1087;-49
2023/05/02 07:43:49;;;;;;;;;;;;;;;16.23;51.09;101638.91;5023001;28;1183;-49
2023/05/02 07:46:14;;;;;;;;;;;;;;;16.24;50.90;101643.28;5021192;28;1050;-47
2023/05/02 07:48:41;;;;;;;;;;;;;;;17.53;47.87;101634.00;5019890;28;1983;-48
2023/05/02 07:51:10;;;;;;;;;;;;;;;16.74;49.65;101642.38;5019488;28;1449;-52
2023/05/02 07:53:35;;;;;;;;;;;;;;;16.43;50.41;101633.72;5009233;28;1239;-46
2023/05/02 07:56:05;;;;;;;;;;;;;;;16.23;50.92;101633.41;5023888;28;1122;-51
2023/05/02 07:58:31;;;;;;;;;;;;;;;16.95;49.42;101637.19;5007682;28;1056;-49
2023/05/02 08:00:56;;;;;;;;;;;;;;;17.17;48.50;101636.38;5019660;28;1051;-46
2023/05/02 08:03:22;;;;;;;;;;;;;;;16.65;49.91;101638.44;5019223;28;1230;-48
2023/05/02 08:05:47;;;;;;;;;;;;;;;16.39;50.45;101638.03;5023606;28;1043;-49
2023/05/02 08:08:13;;;;;;;;;;;;;;;16.20;51.20;101636.63;5028728;28;1890;-52
2023/05/02 08:10:38;;;;;;;;;;;;;;;16.14;51.11;101637.66;5018778;28;1207;-48
2023/05/02 08:13:04;;;;;;;;;;;;;;;17.47;48.02;101640.56;5034713;28;1087;-46
2023/05/02 08:15:29;;;;;;;;;;;;;;;16.85;49.18;101634.31;5018400;28;1216;-45
2023/05/02 08:17:55;;;;;;;;;;;;;;;16.49;50.17;101642.03;5019957;28;1150;-48
2023/05/02 08:20:21;;;;;;;;;;;;;;;16.23;50.95;101636.97;5019849;28;1087;-47
2023/05/02 08:22:47;;;;;;;;;;;;;;;16.12;51.10;101639.78;5020056;28;1178;-50
2023/05/02 08:25:12;;;;;;;;;;;;;;;17.47;47.87;101646.06;5019568;28;1047;-46
2023/05/02 08:27:38;;;;;;;;;;;;;;;16.85;49.21;101645.28;5019281;28;1902;-48
2023/05/02 08:30:04;;;;;;;;;;;;;;;16.40;50.34;101647.94;5018918;28;1067;-49
2023/05/02 08:32:30;;;;;;;;;;;;;;;16.29;50.90;101651.59;5024551;28;1186;-48
2023/05/02 08:34:56;;;;;;;;;;;;;;;16.08;51.29;101639.47;5021155;28;1111;-52
2023/05/02 08:37:22;;;;;;;;;;;;;;;16.87;49.38;101643.09;5018444;28;1120;-49
2023/05/02 08:39:47;;;;;;;;;;;;;;;17.37;48.08;101661.34;5019370;28;1175;-50
2023/05/02 08:42:13;;;;;;;;;;;;;;;16.62;50.01;101657.31;5019620;28;1115;-47
2023/05/02 08:44:38;;;;;;;;;;;;;;;16.37;50.54;101650.38;5020601;28;1016;-50
2023/05/02 08:47:05;;;;;;;;;;;;;;;16.32;50.87;101655.78;5018758;28;1283;-50
2023/05/02 08:49:31;;;;;;;;;;;;;;;17.68;47.26;101647.09;5018672;28;1902;-52
2023/05/02 08:51:56;;;;;;;;;;;;;;;16.89;49.20;101658.28;5019013;28;1094;-53
2023/05/02 08:54:24;;;;;;;;;;;;;;;16.49;50.12;101650.25;5016603;28;1029;-51
2023/05/02 08:56:50;;;;;;;;;;;;;;;16.33;50.44;101649.22;5024210;28;1092;-51
2023/05/02 08:59:15;;;;;;;;;;;;;;;16.16;50.83;101647.28;5021016;28;1111;-49
2023/05/02 09:01:41;;;;;;;;;;;;;;;16.95;49.28;101659.19;5018986;28;1055;-48
2023/05/02 09:04:06;;;;;;;;;;;;;;;17.30;47.90;101652.47;5018404;28;1075;-47
2023/05/02 09:06:33;;;;;;;;;;;;;;;16.64;49.80;101649.66;5018750;28;1035;-51
2023/05/02 09:08:59;;;;;;;;;;;;;;;16.37;50.43;101653.94;5018128;28;1914;-47
2023/05/02 09:11:25;;;;;;;;;;;;;;;16.22;50.96;101654.53;5018613;28;1060;-47
2023/05/02 09:13:53;;;;;;;;;;;;;;;16.39;50.58;101648.19;5018439;28;1147;-46
2023/05/02 09:16:21;;;;;;;;;;;;;;;17.45;47.77;101646.31;5018608;28;1198;-51
2023/05/02 09:18:51;;;;;;;;;;;;;;;16.62;49.96;101646.31;5018048;28;1104;-52
2023/05/02 09:21:17;;;;;;;;;;;;;;;16.42;50.45;101648.53;5017792;28;1064;-55
2023/05/02 09:23:43;;;;;;;;;;;;;;;16.17;50.80;101643.47;5010366;28;1432;-50
2023/05/02 09:26:15;;;;;;;;;;;;;;;17.49;47.78;101643.88;5015842;28;913;-54
2023/05/02 09:28:47;;;;;;;;;;;;;;;16.97;48.97;101645.19;5017433;28;1902;-51
2023/05/02 09:31:16;;;;;;;;;;;;;;;16.54;50.09;101639.38;5008436;28;1227;-50
2023/05/02 09:33:42;;;;;;;;;;;;;;;16.31;50.67;101638.47;5024631;28;1087;-48
2023/05/02 09:36:09;;;;;;;;;;;;;;;16.19;50.85;101627.59;5019627;28;1114;-49
2023/05/02 09:38:34;;;;;;;;;;;;;;;16.17;51.01;101638.00;5015458;28;1121;-50
2023/05/02 09:41:02;;;;;;;;;;;;;;;17.58;47.37;101631.31;5008040;28;1021;-52
2023/05/02 09:43:28;;;;;;;;;;;;;;;16.75;49.21;101644.06;5018404;28;1183;-52
2023/05/02 09:46:20;;;;;;;;;;;;;;;16.42;50.45;101643.03;5020573;28;1250;-52
2023/05/02 09:48:55;;;;;;;;;;;;;;;16.21;50.96;101635.56;5003784;28;1981;-51
2023/05/02 09:51:20;;;;;;;;;;;;;;;16.07;51.29;101635.06;5016189;28;1196;-51
2023/05/02 09:53:46;;;;;;;;;;;;;;;17.03;49.04;101630.44;5003306;28;1424;-51
2023/05/02 09:56:11;;;;;;;;;;;;;;;17.26;47.94;101632.06;5016437;28;1087;-48
2023/05/02 09:58:37;;;;;;;;;;;;;;;16.62;49.75;101641.69;5013053;28;1126;-49
2023/05/02 10:01:03;;;;;;;;;;;;;;;16.36;50.45;101638.53;5011167;28;1075;-52
2023/05/02 10:03:28;;;;;;;;;;;;;;;16.18;50.62;101636.06;5015154;28;1605;-55
2023/05/02 10:05:54;;;;;;;;;;;;;;;16.07;50.96;101641.41;5012921;28;1174;-51
2023/05/02 10:08:20;;;;;;;;;;;;;;;17.51;47.62;101645.28;5009213;28;1910;-53
2023/05/02 10:10:55;;;;;;;;;;;;;;;16.84;49.19;101638.13;5016664;28;1542;-51
2023/05/02 10:13:21;;;;;;;;;;;;;;;16.45;50.01;101649.09;5011299;28;1120;-51
2023/05/02 10:15:48;;;;;;;;;;;;;;;16.32;50.38;101637.38;5015454;28;1190;-47
2023/05/02 10:18:19;;;;;;;;;;;;;;;17.64;47.21;101649.53;5015924;28;1281;-52
2023/05/02 10:20:51;;;;;;;;;;;;;;;16.79;49.03;101647.13;5003674;28;1123;-52
2023/05/02 10:23:17;;;;;;;;;;;;;;;16.46;50.01;101642.53;5033880;28;1035;-49
2023/05/02 10:25:42;;;;;;;;;;;;;;;16.30;50.51;101638.72;5005846;28;1143;-52
2023/05/02 10:28:08;;;;;;;;;;;;;;;16.17;50.92;101639.88;5016476;28;1910;-52
2023/05/02 10:30:34;;;;;;;;;;;;;;;17.62;47.15;101633.28;5015187;28;1171;-52
2023/05/02 10:32:59;;;;;;;;;;;;;;;16.83;48.92;101637.31;5028906;28;1114;-51
2023/05/02 10:35:25;;;;;;;;;;;;;;;16.55;49.90;101635.50;5017102;28;1210;-50
2023/05/02 10:37:50;;;;;;;;;;;;;;;16.32;50.33;101634.63;5017702;28;1080;-50
2023/05/02 10:40:16;;;;;;;;;;;;;;;16.17;50.77;101634.41;5016740;28;1036;-49
2023/05/02 10:42:45;;;;;;;;;;;;;;;16.12;51.09;101637.91;5015788;28;1079;-52
2023/05/02 10:45:29;;;;;;;;;;;;;;;17.14;48.31;101637.72;5019611;28;1130;-46
2023/05/02 10:48:13;;;;;;;;;;;;;;;16.94;48.91;101635.53;5022785;28;1914;-48
2023/05/02 10:50:50;;;;;;;;;;;;;;;16.40;50.31;101636.97;5023400;28;1054;-49
2023/05/02 10:53:21;;;;;;;;;;;;;;;16.22;50.61;101631.75;5016461;28;1029;-48
2023/05/02 10:56:06;;;;;;;;;;;;;;;17.44;47.77;101631.72;5016613;28;1090;-46
2023/05/02 10:58:32;;;;;;;;;;;;;;;16.92;48.99;101634.97;5016981;28;889;-52
2023/05/02 11:01:17;;;;;;;;;;;;;;;16.54;49.81;101633.88;5016813;28;1102;-52
2023/05/02 11:03:56;;;;;;;;;;;;;;;16.31;50.41;101641.19;5016384;28;1301;-53
2023/05/02 11:06:21;;;;;;;;;;;;;;;16.21;50.98;101630.06;5017023;28;1074;-47
2023/05/02 11:08:47;;;;;;;;;;;;;;;16.13;50.84;101633.22;5016595;28;1974;-48
2023/05/02 11:11:31;;;;;;;;;;;;;;;17.59;47.37;101631.06;5016163;28;984;-50
2023/05/02 11:13:56;;;;;;;;;;;;;;;16.71;49.55;101629.16;5015601;28;1060;-53
2023/05/02 11:16:22;;;;;;;;;;;;;;;16.39;50.29;101635.28;5015361;28;1254;-53
2023/05/02 11:18:57;;;;;;;;;;;;;;;16.32;50.73;101625.59;5017191;28;1680;-51
2023/05/02 11:21:28;;;;;;;;;;;;;;;17.59;47.32;101620.06;5010604;28;887;-52
2023/05/02 11:24:13;;;;;;;;;;;;;;;16.81;49.49;101630.41;5031884;28;1023;-51
2023/05/02 11:26:38;;;;;;;;;;;;;;;16.48;50.26;101629.38;5036307;28;1122;-52
2023/05/02 11:29:04;;;;;;;;;;;;;;;16.30;50.85;101628.59;5021669;28;1919;-55
2023/05/02 11:31:29;;;;;;;;;;;;;;;16.16;51.08;101629.97;5022998;28;1151;-49
2023/05/02 11:33:55;;;;;;;;;;;;;;;16.86;49.59;101639.53;5028633;28;1562;-52
2023/05/02 11:36:28;;;;;;;;;;;;;;;17.27;48.29;101631.00;5013876;28;1126;-49
2023/05/02 11:38:54;;;;;;;;;;;;;;;16.60;50.19;101628.19;5027795;28;1194;-49
2023/05/02 11:41:19;;;;;;;;;;;;;;;16.32;50.66;101636.56;5022730;28;1036;-46
2023/05/02 11:43:45;;;;;;;;;;;;;;;16.22;51.08;101629.81;5023266;28;1091;-50
2023/05/02 11:46:11;;;;;;;;;;;;;;;16.46;50.44;101628.81;5023229;28;1143;-46
2023/05/02 11:48:36;;;;;;;;;;;;;;;17.41;47.85;101618.50;5022777;28;1901;-48
2023/05/02 11:51:03;;;;;;;;;;;;;;;16.71;49.88;101622.84;5021374;28;1131;-50
2023/05/02 11:53:30;;;;;;;;;;;;;;;16.39;50.67;101621.56;5022564;28;1099;-48
2023/05/02 11:55:56;;;;;;;;;;;;;;;16.25;50.75;101626.56;5009766;28;1108;-51
2023/05/02 11:58:22;;;;;;;;;;;;;;;16.11;51.09;101617.03;5030327;28;1067;-53
2023/05/02 12:00:48;;;;;;;;;;;;;;;16.40;50.62;101628.72;5022657;28;1161;-50
2023/05/02 12:03:27;;;;;;;;;;;;;;;17.40;48.08;101622.34;5022998;28;1068;-49
2023/05/02 12:05:52;;;;;;;;;;;;;;;16.65;49.89;101621.94;5023042;28;1174;-52
2023/05/02 12:08:25;;;;;;;;;;;;;;;16.37;50.50;101626.50;5022371;28;1902;-53
2023/05/02 12:10:51;;;;;;;;;;;;;;;16.18;51.05;101625.09;5027560;28;1106;-49
2023/05/02 12:13:17;;;;;;;;;;;;;;;16.94;49.25;101632.78;5022591;28;1102;-51
2023/05/02 12:15:42;;;;;;;;;;;;;;;17.24;48.11;101628.78;5022376;28;1004;-51
2023/05/02 12:18:08;;;;;;;;;;;;;;;16.67;49.92;101632.69;5020908;28;1080;-49
2023/05/02 12:20:34;;;;;;;;;;;;;;;16.36;50.56;101630.31;5021431;28;1080;-55
2023/05/02 12:22:59;;;;;;;;;;;;;;;16.19;51.00;101618.53;5034080;28;1182;-53
2023/05/02 12:25:25;;;;;;;;;;;;;;;17.19;48.64;101628.69;5023051;28;1055;-52
2023/05/02 12:28:01;;;;;;;;;;;;;;;17.03;48.72;101622.19;5020612;28;1902;-48
2023/05/02 12:30:26;;;;;;;;;;;;;;;16.51;49.86;101624.22;5019232;28;1019;-53
2023/05/02 12:32:57;;;;;;;;;;;;;;;16.36;50.33;101619.34;5008337;28;1317;-51
2023/05/02 12:35:22;;;;;;;;;;;;;;;16.30;50.61;101623.09;5014062;28;1034;-48
2023/05/02 12:37:48;;;;;;;;;;;;;;;17.64;47.54;101613.78;5024371;28;1028;-54
2023/05/02 12:40:16;;;;;;;;;;;;;;;16.75;49.52;101608.34;5019415;28;1039;-51
2023/05/02 12:42:42;;;;;;;;;;;;;;;16.48;50.14;101610.16;5019236;28;1221;-49
2023/05/02 12:45:16;;;;;;;;;;;;;;;16.32;50.46;101611.84;5019431;28;1048;-49
2023/05/02 12:47:45;;;;;;;;;;;;;;;16.18;50.94;101605.88;5018758;28;1910;-49
2023/05/02 12:50:10;;;;;;;;;;;;;;;17.08;48.54;101603.84;5019059;28;1051;-51